sensor_id;sensor_type;location;lat;lon;timestamp;P1;durP1;ratioP1;P2;durP2;ratioP2
16133;SDS011;8172;45.018;5.972;2022-08-01T00:03:57;2.80;;;2.17;;
16133;SDS011;8172;45.018;5.972;2022-08-01T00:09:04;3.27;;;2.10;;
16133;SDS011;8172;45.018;5.972;2022-08-01T00:14:11;3.30;;;2.30;;
16133;SDS011;8172;45.018;5.972;2022-08-01T00:19:19;2.43;;;2.07;;
16133;SDS011;8172;45.018;5.972;2022-08-01T00:24:25;2.20;;;2.00;;
16133;SDS011;8172;45.018;5.972;2022-08-01T00:29:33;2.40;;;2.20;;
16133;SDS011;8172;45.018;5.972;2022-08-01T00:34:41;2.27;;;2.07;;
16133;SDS011;8172;45.018;5.972;2022-08-01T00:39:48;2.53;;;1.97;;
16133;SDS011;8172;45.018;5.972;2022-08-01T00:44:55;2.63;;;2.27;;
16133;SDS011;8172;45.018;5.972;2022-08-01T00:50:03;3.03;;;2.10;;
16133;SDS011;8172;45.018;5.972;2022-08-01T00:55:11;2.40;;;2.20;;
16133;SDS011;8172;45.018;5.972;2022-08-01T01:00:19;2.37;;;2.17;;
16133;SDS011;8172;45.018;5.972;2022-08-01T01:05:28;2.53;;;2.23;;
16133;SDS011;8172;45.018;5.972;2022-08-01T01:15:49;3.00;;;2.27;;
16133;SDS011;8172;45.018;5.972;2022-08-01T01:31:15;6.10;;;2.40;;
16133;SDS011;8172;45.018;5.972;2022-08-01T01:36:25;3.00;;;2.40;;
16133;SDS011;8172;45.018;5.972;2022-08-01T01:41:33;2.87;;;2.27;;
16133;SDS011;8172;45.018;5.972;2022-08-01T01:46:43;3.43;;;2.30;;
16133;SDS011;8172;45.018;5.972;2022-08-01T01:51:51;5.43;;;2.30;;
16133;SDS011;8172;45.018;5.972;2022-08-01T01:57:03;3.40;;;2.63;;
16133;SDS011;8172;45.018;5.972;2022-08-01T02:02:12;3.10;;;2.20;;
16133;SDS011;8172;45.018;5.972;2022-08-01T02:07:23;2.70;;;2.50;;
16133;SDS011;8172;45.018;5.972;2022-08-01T02:12:33;2.90;;;2.30;;
16133;SDS011;8172;45.018;5.972;2022-08-01T02:17:43;2.53;;;2.20;;
16133;SDS011;8172;45.018;5.972;2022-08-01T02:22:53;3.73;;;2.20;;
16133;SDS011;8172;45.018;5.972;2022-08-01T02:38:20;4.63;;;2.50;;
16133;SDS011;8172;45.018;5.972;2022-08-01T02:43:30;6.03;;;2.40;;
16133;SDS011;8172;45.018;5.972;2022-08-01T02:48:40;3.47;;;2.50;;
16133;SDS011;8172;45.018;5.972;2022-08-01T02:53:48;3.47;;;2.40;;
16133;SDS011;8172;45.018;5.972;2022-08-01T02:58:57;3.40;;;2.40;;
16133;SDS011;8172;45.018;5.972;2022-08-01T03:04:05;2.40;;;2.20;;
16133;SDS011;8172;45.018;5.972;2022-08-01T03:09:13;2.80;;;2.20;;
16133;SDS011;8172;45.018;5.972;2022-08-01T03:14:21;4.47;;;2.40;;
16133;SDS011;8172;45.018;5.972;2022-08-01T03:19:30;3.57;;;2.30;;
16133;SDS011;8172;45.018;5.972;2022-08-01T03:24:40;5.13;;;2.50;;
16133;SDS011;8172;45.018;5.972;2022-08-01T03:29:49;3.10;;;2.10;;
16133;SDS011;8172;45.018;5.972;2022-08-01T03:34:57;4.00;;;2.30;;
16133;SDS011;8172;45.018;5.972;2022-08-01T03:40:08;3.10;;;2.60;;
16133;SDS011;8172;45.018;5.972;2022-08-01T03:45:15;2.87;;;2.40;;
16133;SDS011;8172;45.018;5.972;2022-08-01T03:50:24;4.10;;;2.40;;
16133;SDS011;8172;45.018;5.972;2022-08-01T03:55:33;3.60;;;2.10;;
16133;SDS011;8172;45.018;5.972;2022-08-01T04:00:42;3.07;;;2.30;;
16133;SDS011;8172;45.018;5.972;2022-08-01T04:05:50;2.93;;;2.30;;
16133;SDS011;8172;45.018;5.972;2022-08-01T04:10:57;3.83;;;2.60;;
16133;SDS011;8172;45.018;5.972;2022-08-01T04:16:04;2.30;;;2.10;;
16133;SDS011;8172;45.018;5.972;2022-08-01T04:21:11;2.67;;;2.07;;
16133;SDS011;8172;45.018;5.972;2022-08-01T04:26:19;2.93;;;2.40;;
16133;SDS011;8172;45.018;5.972;2022-08-01T04:31:28;3.00;;;2.40;;
16133;SDS011;8172;45.018;5.972;2022-08-01T04:36:36;3.83;;;2.30;;
16133;SDS011;8172;45.018;5.972;2022-08-01T04:41:47;3.20;;;2.60;;
16133;SDS011;8172;45.018;5.972;2022-08-01T04:46:56;3.43;;;2.40;;
16133;SDS011;8172;45.018;5.972;2022-08-01T04:52:06;2.60;;;2.40;;
16133;SDS011;8172;45.018;5.972;2022-08-01T04:57:14;4.43;;;2.63;;
16133;SDS011;8172;45.018;5.972;2022-08-01T05:02:21;2.40;;;2.20;;
16133;SDS011;8172;45.018;5.972;2022-08-01T05:07:29;2.53;;;2.30;;
16133;SDS011;8172;45.018;5.972;2022-08-01T05:12:37;2.47;;;2.27;;
16133;SDS011;8172;45.018;5.972;2022-08-01T05:17:45;3.53;;;2.47;;
16133;SDS011;8172;45.018;5.972;2022-08-01T05:22:50;2.63;;;2.30;;
16133;SDS011;8172;45.018;5.972;2022-08-01T05:27:57;3.80;;;2.33;;
16133;SDS011;8172;45.018;5.972;2022-08-01T05:33:04;2.53;;;2.33;;
16133;SDS011;8172;45.018;5.972;2022-08-01T05:38:11;3.37;;;2.50;;
16133;SDS011;8172;45.018;5.972;2022-08-01T05:43:19;3.83;;;2.27;;
16133;SDS011;8172;45.018;5.972;2022-08-01T05:48:27;3.00;;;2.40;;
16133;SDS011;8172;45.018;5.972;2022-08-01T05:53:35;2.83;;;2.50;;
16133;SDS011;8172;45.018;5.972;2022-08-01T05:58:42;4.40;;;2.40;;
16133;SDS011;8172;45.018;5.972;2022-08-01T06:03:49;2.40;;;2.20;;
16133;SDS011;8172;45.018;5.972;2022-08-01T06:08:58;2.50;;;2.30;;
16133;SDS011;8172;45.018;5.972;2022-08-01T06:14:05;2.73;;;2.33;;
16133;SDS011;8172;45.018;5.972;2022-08-01T06:19:12;2.90;;;2.60;;
16133;SDS011;8172;45.018;5.972;2022-08-01T06:24:20;3.50;;;2.20;;
16133;SDS011;8172;45.018;5.972;2022-08-01T06:29:29;2.53;;;2.33;;
16133;SDS011;8172;45.018;5.972;2022-08-01T06:34:37;2.77;;;2.30;;
16133;SDS011;8172;45.018;5.972;2022-08-01T06:39:44;3.13;;;2.30;;
16133;SDS011;8172;45.018;5.972;2022-08-01T06:44:51;2.63;;;2.43;;
16133;SDS011;8172;45.018;5.972;2022-08-01T06:49:58;2.57;;;2.13;;
16133;SDS011;8172;45.018;5.972;2022-08-01T06:55:07;2.33;;;2.13;;
16133;SDS011;8172;45.018;5.972;2022-08-01T07:00:14;4.70;;;2.20;;
16133;SDS011;8172;45.018;5.972;2022-08-01T07:05:24;2.47;;;2.27;;
16133;SDS011;8172;45.018;5.972;2022-08-01T07:10:31;3.53;;;2.40;;
16133;SDS011;8172;45.018;5.972;2022-08-01T07:15:38;2.00;;;1.90;;
16133;SDS011;8172;45.018;5.972;2022-08-01T07:20:44;2.17;;;2.03;;
16133;SDS011;8172;45.018;5.972;2022-08-01T07:25:53;2.57;;;2.10;;
16133;SDS011;8172;45.018;5.972;2022-08-01T07:31:02;2.40;;;2.20;;
16133;SDS011;8172;45.018;5.972;2022-08-01T07:36:07;2.37;;;2.00;;
16133;SDS011;8172;45.018;5.972;2022-08-01T07:41:14;3.20;;;2.10;;
16133;SDS011;8172;45.018;5.972;2022-08-01T07:46:21;2.37;;;2.17;;
16133;SDS011;8172;45.018;5.972;2022-08-01T07:51:28;4.17;;;2.40;;
16133;SDS011;8172;45.018;5.972;2022-08-01T07:56:35;4.67;;;2.40;;
16133;SDS011;8172;45.018;5.972;2022-08-01T08:01:42;2.83;;;2.40;;
16133;SDS011;8172;45.018;5.972;2022-08-01T08:06:51;3.60;;;2.70;;
16133;SDS011;8172;45.018;5.972;2022-08-01T08:11:58;3.73;;;2.30;;
16133;SDS011;8172;45.018;5.972;2022-08-01T08:17:06;2.90;;;2.60;;
16133;SDS011;8172;45.018;5.972;2022-08-01T08:22:13;3.70;;;2.70;;
16133;SDS011;8172;45.018;5.972;2022-08-01T08:27:20;4.00;;;2.40;;
16133;SDS011;8172;45.018;5.972;2022-08-01T08:32:27;2.67;;;2.47;;
16133;SDS011;8172;45.018;5.972;2022-08-01T08:37:35;4.13;;;2.50;;
16133;SDS011;8172;45.018;5.972;2022-08-01T08:42:45;3.57;;;2.40;;
16133;SDS011;8172;45.018;5.972;2022-08-01T08:47:53;3.40;;;2.40;;
16133;SDS011;8172;45.018;5.972;2022-08-01T08:53:02;2.77;;;2.40;;
16133;SDS011;8172;45.018;5.972;2022-08-01T08:58:11;2.77;;;2.30;;
16133;SDS011;8172;45.018;5.972;2022-08-01T09:03:21;3.00;;;2.70;;
16133;SDS011;8172;45.018;5.972;2022-08-01T09:08:28;3.77;;;2.27;;
16133;SDS011;8172;45.018;5.972;2022-08-01T09:13:35;2.47;;;2.20;;
16133;SDS011;8172;45.018;5.972;2022-08-01T09:18:44;3.97;;;2.40;;
16133;SDS011;8172;45.018;5.972;2022-08-01T09:23:53;2.50;;;2.30;;
16133;SDS011;8172;45.018;5.972;2022-08-01T09:29:04;2.93;;;2.70;;
16133;SDS011;8172;45.018;5.972;2022-08-01T09:34:15;2.77;;;2.53;;
16133;SDS011;8172;45.018;5.972;2022-08-01T09:39:25;2.60;;;2.40;;
16133;SDS011;8172;45.018;5.972;2022-08-01T09:44:38;2.70;;;2.50;;
16133;SDS011;8172;45.018;5.972;2022-08-01T09:49:43;2.70;;;2.50;;
16133;SDS011;8172;45.018;5.972;2022-08-01T09:54:53;3.33;;;2.43;;
16133;SDS011;8172;45.018;5.972;2022-08-01T10:00:00;3.10;;;2.80;;
16133;SDS011;8172;45.018;5.972;2022-08-01T10:05:11;3.53;;;2.47;;
16133;SDS011;8172;45.018;5.972;2022-08-01T10:10:20;3.90;;;2.47;;
16133;SDS011;8172;45.018;5.972;2022-08-01T10:15:28;2.97;;;2.77;;
16133;SDS011;8172;45.018;5.972;2022-08-01T10:20:38;2.43;;;2.23;;
16133;SDS011;8172;45.018;5.972;2022-08-01T10:25:49;2.60;;;2.40;;
16133;SDS011;8172;45.018;5.972;2022-08-01T10:31:00;2.67;;;2.47;;
16133;SDS011;8172;45.018;5.972;2022-08-01T10:36:10;4.70;;;2.50;;
16133;SDS011;8172;45.018;5.972;2022-08-01T10:41:18;2.87;;;2.50;;
16133;SDS011;8172;45.018;5.972;2022-08-01T10:46:26;2.63;;;2.30;;
16133;SDS011;8172;45.018;5.972;2022-08-01T10:51:36;2.40;;;2.20;;
16133;SDS011;8172;45.018;5.972;2022-08-01T10:56:46;3.67;;;2.30;;
16133;SDS011;8172;45.018;5.972;2022-08-01T11:01:57;2.57;;;2.37;;
16133;SDS011;8172;45.018;5.972;2022-08-01T11:07:06;2.60;;;2.37;;
16133;SDS011;8172;45.018;5.972;2022-08-01T11:12:17;3.27;;;2.10;;
16133;SDS011;8172;45.018;5.972;2022-08-01T11:17:30;2.30;;;2.10;;
16133;SDS011;8172;45.018;5.972;2022-08-01T11:28:08;3.23;;;2.30;;
16133;SDS011;8172;45.018;5.972;2022-08-01T11:33:00;3.30;;;2.20;;
16133;SDS011;8172;45.018;5.972;2022-08-01T11:43:19;2.92;;;2.10;;
16133;SDS011;8172;45.018;5.972;2022-08-01T11:48:28;3.15;;;2.35;;
16133;SDS011;8172;45.018;5.972;2022-08-01T11:53:35;2.37;;;2.17;;
16133;SDS011;8172;45.018;5.972;2022-08-01T11:58:45;2.42;;;2.22;;
16133;SDS011;8172;45.018;5.972;2022-08-01T12:03:55;3.12;;;2.40;;
16133;SDS011;8172;45.018;5.972;2022-08-01T12:14:19;2.22;;;1.98;;
16133;SDS011;8172;45.018;5.972;2022-08-01T12:19:25;2.08;;;1.87;;
16133;SDS011;8172;45.018;5.972;2022-08-01T12:24:34;3.08;;;2.00;;
16133;SDS011;8172;45.018;5.972;2022-08-01T12:29:42;1.90;;;1.80;;
16133;SDS011;8172;45.018;5.972;2022-08-01T12:34:51;1.72;;;1.62;;
16133;SDS011;8172;45.018;5.972;2022-08-01T12:40:06;1.80;;;1.65;;
16133;SDS011;8172;45.018;5.972;2022-08-01T12:45:14;2.35;;;2.00;;
16133;SDS011;8172;45.018;5.972;2022-08-01T12:50:22;2.00;;;1.75;;
16133;SDS011;8172;45.018;5.972;2022-08-01T12:55:33;2.45;;;2.00;;
16133;SDS011;8172;45.018;5.972;2022-08-01T13:00:45;3.85;;;1.70;;
16133;SDS011;8172;45.018;5.972;2022-08-01T13:05:55;2.00;;;1.90;;
16133;SDS011;8172;45.018;5.972;2022-08-01T13:11:06;2.45;;;1.85;;
16133;SDS011;8172;45.018;5.972;2022-08-01T13:16:17;2.15;;;1.65;;
16133;SDS011;8172;45.018;5.972;2022-08-01T13:21:28;2.45;;;1.95;;
16133;SDS011;8172;45.018;5.972;2022-08-01T13:31:48;2.92;;;1.90;;
16133;SDS011;8172;45.018;5.972;2022-08-01T13:36:55;2.83;;;2.00;;
16133;SDS011;8172;45.018;5.972;2022-08-01T13:42:02;3.35;;;1.98;;
16133;SDS011;8172;45.018;5.972;2022-08-01T13:52:19;2.33;;;1.80;;
16133;SDS011;8172;45.018;5.972;2022-08-01T13:57:26;2.52;;;2.00;;
16133;SDS011;8172;45.018;5.972;2022-08-01T14:02:46;2.70;;;1.85;;
16133;SDS011;8172;45.018;5.972;2022-08-01T14:08:25;2.83;;;1.90;;
16133;SDS011;8172;45.018;5.972;2022-08-01T14:13:34;2.10;;;1.77;;
16133;SDS011;8172;45.018;5.972;2022-08-01T14:18:45;3.95;;;2.12;;
16133;SDS011;8172;45.018;5.972;2022-08-01T14:23:54;5.65;;;2.40;;
16133;SDS011;8172;45.018;5.972;2022-08-01T14:29:01;2.65;;;1.98;;
16133;SDS011;8172;45.018;5.972;2022-08-01T14:34:08;3.60;;;1.90;;
16133;SDS011;8172;45.018;5.972;2022-08-01T14:39:16;2.58;;;2.17;;
16133;SDS011;8172;45.018;5.972;2022-08-01T14:44:23;2.42;;;2.02;;
16133;SDS011;8172;45.018;5.972;2022-08-01T14:49:32;2.02;;;1.92;;
16133;SDS011;8172;45.018;5.972;2022-08-01T14:54:40;2.50;;;2.10;;
16133;SDS011;8172;45.018;5.972;2022-08-01T14:59:47;2.10;;;1.92;;
16133;SDS011;8172;45.018;5.972;2022-08-01T15:04:55;2.20;;;2.00;;
16133;SDS011;8172;45.018;5.972;2022-08-01T15:10:02;2.22;;;2.02;;
16133;SDS011;8172;45.018;5.972;2022-08-01T15:15:11;2.80;;;2.08;;
16133;SDS011;8172;45.018;5.972;2022-08-01T15:20:17;3.50;;;2.00;;
16133;SDS011;8172;45.018;5.972;2022-08-01T15:25:25;2.42;;;1.92;;
16133;SDS011;8172;45.018;5.972;2022-08-01T15:30:35;2.77;;;2.30;;
16133;SDS011;8172;45.018;5.972;2022-08-01T15:35:42;6.55;;;2.17;;
16133;SDS011;8172;45.018;5.972;2022-08-01T15:40:50;2.37;;;2.15;;
16133;SDS011;8172;45.018;5.972;2022-08-01T15:45:57;2.05;;;1.90;;
16133;SDS011;8172;45.018;5.972;2022-08-01T15:51:05;2.37;;;1.75;;
16133;SDS011;8172;45.018;5.972;2022-08-01T15:56:12;2.17;;;1.98;;
16133;SDS011;8172;45.018;5.972;2022-08-01T16:01:20;2.15;;;1.98;;
16133;SDS011;8172;45.018;5.972;2022-08-01T16:06:27;3.87;;;2.17;;
16133;SDS011;8172;45.018;5.972;2022-08-01T16:11:35;1.98;;;1.87;;
16133;SDS011;8172;45.018;5.972;2022-08-01T16:16:44;3.67;;;1.80;;
16133;SDS011;8172;45.018;5.972;2022-08-01T16:21:52;2.08;;;1.90;;
16133;SDS011;8172;45.018;5.972;2022-08-01T16:26:59;2.10;;;1.90;;
16133;SDS011;8172;45.018;5.972;2022-08-01T16:32:05;1.82;;;1.70;;
16133;SDS011;8172;45.018;5.972;2022-08-01T16:37:15;2.02;;;1.82;;
16133;SDS011;8172;45.018;5.972;2022-08-01T16:42:22;2.30;;;2.10;;
16133;SDS011;8172;45.018;5.972;2022-08-01T16:47:31;4.37;;;1.80;;
16133;SDS011;8172;45.018;5.972;2022-08-01T16:52:38;2.22;;;1.70;;
16133;SDS011;8172;45.018;5.972;2022-08-01T16:57:46;4.20;;;2.05;;
16133;SDS011;8172;45.018;5.972;2022-08-01T17:02:53;3.58;;;1.90;;
16133;SDS011;8172;45.018;5.972;2022-08-01T17:08:02;3.15;;;1.70;;
16133;SDS011;8172;45.018;5.972;2022-08-01T17:13:10;2.20;;;1.87;;
16133;SDS011;8172;45.018;5.972;2022-08-01T17:18:17;3.30;;;1.80;;
16133;SDS011;8172;45.018;5.972;2022-08-01T17:23:24;2.57;;;1.83;;
16133;SDS011;8172;45.018;5.972;2022-08-01T17:28:32;3.35;;;1.57;;
16133;SDS011;8172;45.018;5.972;2022-08-01T17:33:39;2.23;;;2.03;;
16133;SDS011;8172;45.018;5.972;2022-08-01T17:38:49;2.57;;;1.90;;
16133;SDS011;8172;45.018;5.972;2022-08-01T17:43:56;1.72;;;1.62;;
16133;SDS011;8172;45.018;5.972;2022-08-01T17:49:04;3.27;;;1.62;;
16133;SDS011;8172;45.018;5.972;2022-08-01T17:54:11;3.83;;;1.50;;
16133;SDS011;8172;45.018;5.972;2022-08-01T17:59:19;1.53;;;1.43;;
16133;SDS011;8172;45.018;5.972;2022-08-01T18:04:26;1.70;;;1.53;;
16133;SDS011;8172;45.018;5.972;2022-08-01T18:09:34;6.27;;;2.27;;
16133;SDS011;8172;45.018;5.972;2022-08-01T18:14:43;2.47;;;1.70;;
16133;SDS011;8172;45.018;5.972;2022-08-01T18:19:53;3.47;;;1.70;;
16133;SDS011;8172;45.018;5.972;2022-08-01T18:25:01;1.80;;;1.60;;
16133;SDS011;8172;45.018;5.972;2022-08-01T18:30:12;2.03;;;1.60;;
16133;SDS011;8172;45.018;5.972;2022-08-01T18:35:19;4.03;;;1.70;;
16133;SDS011;8172;45.018;5.972;2022-08-01T18:40:28;2.43;;;1.70;;
16133;SDS011;8172;45.018;5.972;2022-08-01T18:45:35;1.87;;;1.50;;
16133;SDS011;8172;45.018;5.972;2022-08-01T18:50:44;2.53;;;1.53;;
16133;SDS011;8172;45.018;5.972;2022-08-01T18:55:51;1.70;;;1.60;;
16133;SDS011;8172;45.018;5.972;2022-08-01T19:00:58;1.63;;;1.40;;
16133;SDS011;8172;45.018;5.972;2022-08-01T19:06:11;1.70;;;1.60;;
16133;SDS011;8172;45.018;5.972;2022-08-01T19:11:22;2.57;;;1.60;;
16133;SDS011;8172;45.018;5.972;2022-08-01T19:16:29;3.00;;;1.57;;
16133;SDS011;8172;45.018;5.972;2022-08-01T19:21:37;2.47;;;1.70;;
16133;SDS011;8172;45.018;5.972;2022-08-01T19:26:48;3.17;;;1.60;;
16133;SDS011;8172;45.018;5.972;2022-08-01T19:31:57;1.63;;;1.53;;
16133;SDS011;8172;45.018;5.972;2022-08-01T19:37:06;1.60;;;1.50;;
16133;SDS011;8172;45.018;5.972;2022-08-01T19:42:15;1.53;;;1.43;;
16133;SDS011;8172;45.018;5.972;2022-08-01T19:47:25;1.77;;;1.50;;
16133;SDS011;8172;45.018;5.972;2022-08-01T19:52:34;1.83;;;1.50;;
16133;SDS011;8172;45.018;5.972;2022-08-01T19:57:44;1.50;;;1.40;;
16133;SDS011;8172;45.018;5.972;2022-08-01T20:02:56;2.13;;;1.33;;
16133;SDS011;8172;45.018;5.972;2022-08-01T20:08:04;1.83;;;1.60;;
16133;SDS011;8172;45.018;5.972;2022-08-01T20:13:12;2.73;;;1.40;;
16133;SDS011;8172;45.018;5.972;2022-08-01T20:18:20;1.63;;;1.50;;
16133;SDS011;8172;45.018;5.972;2022-08-01T20:23:28;1.87;;;1.40;;
16133;SDS011;8172;45.018;5.972;2022-08-01T20:28:38;1.60;;;1.50;;
16133;SDS011;8172;45.018;5.972;2022-08-01T20:33:47;2.60;;;1.40;;
16133;SDS011;8172;45.018;5.972;2022-08-01T20:38:55;4.10;;;1.60;;
16133;SDS011;8172;45.018;5.972;2022-08-01T20:44:04;2.37;;;1.50;;
16133;SDS011;8172;45.018;5.972;2022-08-01T20:49:13;1.57;;;1.47;;
16133;SDS011;8172;45.018;5.972;2022-08-01T20:54:22;1.97;;;1.30;;
16133;SDS011;8172;45.018;5.972;2022-08-01T21:04:45;1.77;;;1.40;;
16133;SDS011;8172;45.018;5.972;2022-08-01T21:09:55;1.50;;;1.40;;
16133;SDS011;8172;45.018;5.972;2022-08-01T21:15:02;2.07;;;1.47;;
16133;SDS011;8172;45.018;5.972;2022-08-01T21:20:10;2.23;;;1.73;;
16133;SDS011;8172;45.018;5.972;2022-08-01T21:25:22;1.50;;;1.40;;
16133;SDS011;8172;45.018;5.972;2022-08-01T21:30:30;2.57;;;1.47;;
16133;SDS011;8172;45.018;5.972;2022-08-01T21:35:40;1.90;;;1.40;;
16133;SDS011;8172;45.018;5.972;2022-08-01T21:40:48;1.67;;;1.43;;
16133;SDS011;8172;45.018;5.972;2022-08-01T21:45:56;2.50;;;1.50;;
16133;SDS011;8172;45.018;5.972;2022-08-01T21:51:11;2.43;;;1.40;;
16133;SDS011;8172;45.018;5.972;2022-08-01T22:01:33;1.40;;;1.30;;
16133;SDS011;8172;45.018;5.972;2022-08-01T22:06:35;3.13;;;1.53;;
16133;SDS011;8172;45.018;5.972;2022-08-01T22:11:44;1.50;;;1.40;;
16133;SDS011;8172;45.018;5.972;2022-08-01T22:16:54;1.70;;;1.60;;
16133;SDS011;8172;45.018;5.972;2022-08-01T22:22:03;1.47;;;1.37;;
16133;SDS011;8172;45.018;5.972;2022-08-01T22:27:13;1.60;;;1.50;;
16133;SDS011;8172;45.018;5.972;2022-08-01T22:32:24;1.60;;;1.50;;
16133;SDS011;8172;45.018;5.972;2022-08-01T22:37:33;2.63;;;1.47;;
16133;SDS011;8172;45.018;5.972;2022-08-01T22:53:04;1.67;;;1.37;;
16133;SDS011;8172;45.018;5.972;2022-08-01T22:58:10;2.93;;;1.50;;
16133;SDS011;8172;45.018;5.972;2022-08-01T23:03:22;2.07;;;1.60;;
16133;SDS011;8172;45.018;5.972;2022-08-01T23:08:33;1.50;;;1.40;;
16133;SDS011;8172;45.018;5.972;2022-08-01T23:13:37;1.57;;;1.47;;
16133;SDS011;8172;45.018;5.972;2022-08-01T23:18:44;2.07;;;1.80;;
16133;SDS011;8172;45.018;5.972;2022-08-01T23:23:51;1.80;;;1.60;;
16133;SDS011;8172;45.018;5.972;2022-08-01T23:28:59;2.10;;;1.70;;
16133;SDS011;8172;45.018;5.972;2022-08-01T23:34:07;1.60;;;1.50;;
16133;SDS011;8172;45.018;5.972;2022-08-01T23:39:14;1.63;;;1.50;;
16133;SDS011;8172;45.018;5.972;2022-08-01T23:44:21;2.03;;;1.67;;
16133;SDS011;8172;45.018;5.972;2022-08-01T23:49:28;1.97;;;1.70;;
16133;SDS011;8172;45.018;5.972;2022-08-01T23:54:35;2.50;;;1.80;;
16133;SDS011;8172;45.018;5.972;2022-08-01T23:59:44;2.10;;;1.90;;
